Terminal Aerodrome Forecast
Issued by NWS Corpus Christi, TX

Home | Current Version | Previous Version | Text Only | Print | Product List | Glossary On
Versions: 1 2 3 4 5 6 7 8 9 10 11 12 13 14 15 16 17
000
FTUS44 KCRP 260500
TAFVCT
TAF
KVCT 260526Z 2606/2706 17006KT P6SM FEW018
     FM261500 19011KT P6SM FEW025 SCT050
     FM262100 15015G20KT P6SM FEW060
     FM270100 16010KT P6SM SKC=

USA.gov is the U.S. government's official web portal to all federal, state and local government web resources and services.